SVLM weather

Las Flores Airport
Monagas, Venezuela

Public forecast

Using degrees Celsius for public forecast. Weather courtesy of forecast.io.

Closest aviation weather report (METAR) to Las Flores Airport

Report is more than 6 hours old.

Closest report is Maturín Airport, 21.2 nm (39.3 km) NW. Retrieved 2018/12/04 12:00 UTC (1 year ago):

SVMT 041200Z /////KT 9999 SCT010 BKN300 23/22 Q1011

Closest aviation forecast (TAF) to Las Flores Airport

Closest forecast is Del Caribe Santiago Mariño International Airport, 105.7 nm (195.8 km) NW. Retrieved 2020/01/28 06:05 UTC (4 hours ago):

TAF SVMG 280400Z 2806/2906 09010KT 9999 FEW020 TX30/18Z TN23/06Z BECMG 2806/2810 09008KT FEW016